Time;durP1;ratioP1;P1;durP2;ratioP2;P2;SDS_P1;SDS_P2;PMS_P1;PMS_P2;Temp;Humidity;BMP_temperature;BMP_pressure;BME280_temperature;BME280_humidity;BME280_pressure;Samples;Min_cycle;Max_cycle;Signal;HPM_P1;HPM_P2
2021/12/12 00:02:20;;;;;;;52.33;28.42;;;4.40;99.90;;;;;;5019459;28;20160;-90
2021/12/12 00:04:48;;;;;;;50.30;27.33;;;4.40;99.90;;;;;;5038016;28;20063;-90
2021/12/12 00:07:21;;;;;;;49.08;28.92;;;4.40;99.90;;;;;;5057514;28;20043;-90
2021/12/12 00:09:51;;;;;;;49.80;28.77;;;4.40;99.90;;;;;;5074196;28;20511;-91
2021/12/12 00:12:23;;;;;;;52.33;28.98;;;4.40;99.90;;;;;;5074723;28;20043;-90
2021/12/12 00:14:49;;;;;;;46.77;25.70;;;4.40;99.90;;;;;;5058435;28;20400;-90
2021/12/12 00:17:15;;;;;;;53.08;30.17;;;4.40;99.90;;;;;;5074527;28;20580;-90
2021/12/12 00:19:41;;;;;;;48.28;28.75;;;4.40;99.90;;;;;;5074830;28;20119;-91
2021/12/12 00:22:12;;;;;;;48.30;29.27;;;4.40;99.90;;;;;;5058250;28;20119;-90
2021/12/12 00:24:39;;;;;;;49.85;27.33;;;4.40;99.90;;;;;;5074268;28;20514;-90
2021/12/12 00:27:06;;;;;;;46.42;28.67;;;4.40;99.90;;;;;;5074843;28;20040;-90
2021/12/12 00:29:33;;;;;;;50.70;29.17;;;4.40;99.90;;;;;;5057857;28;20071;-90
2021/12/12 00:32:04;;;;;;;49.53;28.45;;;4.40;99.90;;;;;;5073975;28;20040;-90
2021/12/12 00:34:34;;;;;;;46.22;27.10;;;4.40;99.90;;;;;;5074836;28;20048;-90
2021/12/12 00:37:01;;;;;;;58.28;29.02;;;4.50;99.90;;;;;;5057018;28;20122;-90
2021/12/12 00:39:31;;;;;;;47.53;27.63;;;4.50;99.90;;;;;;5074422;28;20481;-90
2021/12/12 00:42:08;;;;;;;52.20;28.20;;;4.50;99.90;;;;;;5057901;28;20043;-91
2021/12/12 00:44:36;;;;;;;48.63;26.73;;;4.50;99.90;;;;;;5057271;28;20081;-90
2021/12/12 00:47:05;;;;;;;47.08;27.73;;;4.50;99.90;;;;;;5074288;28;20082;-90
2021/12/12 00:49:32;;;;;;;43.70;26.48;;;4.50;99.90;;;;;;5075060;28;20130;-90
2021/12/12 00:51:59;;;;;;;48.28;26.50;;;4.50;99.90;;;;;;5058761;28;20404;-90
2021/12/12 00:54:30;;;;;;;47.83;26.77;;;4.50;99.90;;;;;;5067399;28;20484;-90
2021/12/12 00:56:58;;;;;;;51.50;28.00;;;4.50;99.90;;;;;;5059516;28;20123;-91
2021/12/12 00:59:23;;;;;;;52.00;27.52;;;4.60;99.90;;;;;;5054135;28;20048;-91
2021/12/12 01:01:50;;;;;;;48.35;27.77;;;4.50;99.90;;;;;;5071717;28;20036;-92
2021/12/12 01:04:30;;;;;;;51.15;27.98;;;4.60;99.90;;;;;;5053059;28;20600;-90
2021/12/12 01:06:58;;;;;;;48.95;26.48;;;4.60;99.90;;;;;;5054049;28;20056;-90
2021/12/12 01:09:28;;;;;;;47.90;27.10;;;4.60;99.90;;;;;;5037200;28;20040;-90
2021/12/12 01:11:57;;;;;;;50.08;26.02;;;4.60;99.90;;;;;;5036763;28;20051;-90
2021/12/12 01:14:28;;;;;;;40.90;25.20;;;4.60;99.90;;;;;;5070791;28;20119;-90
2021/12/12 01:17:01;;;;;;;51.67;25.23;;;4.60;99.90;;;;;;5036647;28;20051;-90
2021/12/12 01:19:34;;;;;;;43.63;24.80;;;4.60;99.90;;;;;;5053443;28;20048;-90
2021/12/12 01:22:11;;;;;;;44.55;24.85;;;4.60;99.90;;;;;;5036258;28;20037;-91
2021/12/12 01:24:42;;;;;;;44.78;25.90;;;4.60;99.90;;;;;;5052714;28;20036;-90
2021/12/12 01:27:10;;;;;;;45.13;23.75;;;4.60;99.90;;;;;;5051531;28;20071;-90
2021/12/12 01:29:36;;;;;;;43.83;24.58;;;4.60;99.90;;;;;;5061341;28;20088;-90
2021/12/12 01:32:04;;;;;;;43.33;24.65;;;4.70;99.90;;;;;;5074052;28;20036;-90
2021/12/12 01:34:31;;;;;;;44.60;23.17;;;4.60;99.90;;;;;;5073120;28;20029;-89
2021/12/12 01:37:23;;;;;;;44.33;23.42;;;4.70;99.90;;;;;;5056996;28;20607;-90
2021/12/12 01:39:49;;;;;;;40.42;22.40;;;4.70;99.90;;;;;;5033874;28;20065;-90
2021/12/12 01:42:20;;;;;;;36.22;22.02;;;4.70;99.90;;;;;;5033525;28;20406;-89
2021/12/12 01:44:51;;;;;;;43.85;23.15;;;4.70;99.90;;;;;;5032240;28;20052;-89
2021/12/12 01:47:55;;;;;;;36.70;21.63;;;4.70;99.90;;;;;;5032647;28;20127;-89
2021/12/12 01:50:23;;;;;;;;;;;4.70;99.90;;;;;;4999904;28;20099;-90
2021/12/12 01:52:50;;;;;;;37.58;20.60;;;4.70;99.90;;;;;;5049434;28;19982;-90
2021/12/12 01:55:24;;;;;;;37.75;22.33;;;4.70;99.90;;;;;;5030623;28;20090;-90
2021/12/12 01:57:53;;;;;;;35.33;21.35;;;4.70;99.90;;;;;;5030166;28;20083;-90
2021/12/12 02:00:39;;;;;;;33.83;20.85;;;4.70;99.90;;;;;;5048461;28;20039;-90
2021/12/12 02:03:08;;;;;;;33.95;19.88;;;4.70;99.90;;;;;;5048189;28;20487;-90
2021/12/12 02:05:36;;;;;;;38.70;20.08;;;4.80;99.90;;;;;;5046762;28;20086;-90
2021/12/12 02:08:14;;;;;;;38.38;22.15;;;4.80;99.90;;;;;;5048677;28;20040;-90
2021/12/12 02:10:46;;;;;;;37.53;20.58;;;4.80;99.90;;;;;;5048914;28;20047;-90
2021/12/12 02:13:16;;;;;;;44.88;20.65;;;4.80;99.90;;;;;;5048949;28;20082;-90
2021/12/12 02:15:44;;;;;;;35.72;19.50;;;4.80;99.90;;;;;;5032326;28;20055;-90
2021/12/12 02:18:14;;;;;;;38.55;20.85;;;4.80;99.90;;;;;;5031340;28;20043;-90
2021/12/12 02:21:04;;;;;;;34.95;21.23;;;4.80;99.90;;;;;;5049416;28;20502;-90
2021/12/12 02:23:43;;;;;;;39.47;19.67;;;4.80;99.90;;;;;;5031895;28;20055;-90
2021/12/12 02:37:09;;;;;;;35.28;16.80;;;4.80;99.90;;;;;;5046763;28;20053;-90
2021/12/12 02:39:37;;;;;;;35.05;18.80;;;4.90;99.90;;;;;;5031796;28;20059;-90
2021/12/12 02:42:10;;;;;;;35.55;17.70;;;4.90;99.90;;;;;;5032048;28;20048;-90
2021/12/12 02:44:39;;;;;;;30.08;15.70;;;4.90;99.90;;;;;;5048337;28;20494;-90
2021/12/12 02:47:11;;;;;;;31.42;16.48;;;4.80;99.90;;;;;;5047234;28;20076;-90
2021/12/12 02:49:55;;;;;;;28.40;14.95;;;4.90;99.90;;;;;;5048473;28;20037;-90
2021/12/12 02:52:30;;;;;;;;;;;4.90;99.90;;;;;;5032742;28;20037;-90
2021/12/12 02:55:18;;;;;;;31.23;15.90;;;4.90;99.90;;;;;;5032102;28;19966;-90
2021/12/12 02:57:44;;;;;;;28.65;15.30;;;4.80;99.90;;;;;;5031808;28;20098;-90
2021/12/12 03:00:14;;;;;;;32.92;17.55;;;4.80;99.90;;;;;;5049281;28;20045;-90
2021/12/12 03:02:45;;;;;;;32.40;15.93;;;4.90;99.90;;;;;;5031469;28;20045;-89
2021/12/12 03:05:13;;;;;;;30.60;16.45;;;4.90;99.90;;;;;;5047214;28;20510;-90
2021/12/12 03:07:39;;;;;;;28.13;16.15;;;4.90;99.90;;;;;;5030709;28;20457;-90
2021/12/12 03:10:08;;;;;;;26.95;16.02;;;4.90;99.90;;;;;;5048179;28;20037;-90
2021/12/12 03:12:36;;;;;;;27.67;14.82;;;4.90;99.90;;;;;;5048587;28;20044;-90
2021/12/12 03:15:18;;;;;;;33.30;16.25;;;4.90;99.90;;;;;;5031920;28;20048;-90
2021/12/12 03:17:46;;;;;;;27.52;13.65;;;4.90;99.90;;;;;;5032977;28;20080;-89
2021/12/12 03:20:25;;;;;;;30.67;15.40;;;4.90;99.90;;;;;;5036039;28;20452;-90
2021/12/12 03:22:54;;;;;;;32.78;14.90;;;4.90;99.90;;;;;;5035562;28;20080;-90
2021/12/12 03:25:20;;;;;;;30.10;16.08;;;4.90;99.90;;;;;;5034887;28;20037;-90
2021/12/12 03:27:46;;;;;;;31.23;15.55;;;4.90;99.90;;;;;;5035102;28;20045;-90
2021/12/12 03:30:12;;;;;;;30.90;14.98;;;4.90;99.90;;;;;;5034938;28;20044;-90
2021/12/12 03:32:38;;;;;;;28.65;15.60;;;4.90;99.90;;;;;;5037025;28;20390;-90
2021/12/12 03:35:06;;;;;;;29.73;15.50;;;4.90;99.90;;;;;;5052643;28;20095;-90
2021/12/12 03:37:32;;;;;;;28.85;15.60;;;4.90;99.90;;;;;;5051734;28;20037;-90
2021/12/12 03:40:01;;;;;;;26.85;15.43;;;5.00;99.90;;;;;;5049342;28;20052;-90
2021/12/12 03:42:29;;;;;;;29.52;15.30;;;4.90;99.90;;;;;;5035181;28;20144;-90
2021/12/12 03:44:56;;;;;;;28.48;15.30;;;5.00;99.90;;;;;;5019279;28;20128;-89
2021/12/12 03:47:29;;;;;;;27.75;14.50;;;5.00;99.90;;;;;;5034467;28;20469;-89
2021/12/12 03:49:56;;;;;;;;;;;5.00;99.90;;;;;;5052484;28;20068;-90
2021/12/12 03:52:23;;;;;;;24.20;14.18;;;5.00;99.90;;;;;;5052320;28;20435;-90
2021/12/12 03:54:50;;;;;;;26.45;14.70;;;5.00;99.90;;;;;;5034328;28;20044;-90
2021/12/12 03:57:19;;;;;;;26.27;13.80;;;5.00;99.90;;;;;;5051390;28;20437;-90
2021/12/12 03:59:44;;;;;;;28.75;14.65;;;5.00;99.90;;;;;;5051507;28;20040;-90
2021/12/12 04:02:10;;;;;;;25.75;14.15;;;5.00;99.90;;;;;;5051576;28;20041;-90
2021/12/12 04:04:40;;;;;;;24.60;14.32;;;5.00;99.90;;;;;;5050553;28;20036;-90
2021/12/12 04:07:09;;;;;;;27.42;14.38;;;5.00;99.90;;;;;;5034655;28;20041;-90
2021/12/12 04:09:36;;;;;;;25.20;14.80;;;5.00;99.90;;;;;;5051513;28;20049;-89
2021/12/12 04:12:11;;;;;;;23.50;13.48;;;5.00;99.90;;;;;;5051733;28;20730;-90
2021/12/12 04:14:37;;;;;;;26.80;13.90;;;5.10;99.90;;;;;;5050496;28;20094;-89
2021/12/12 04:17:11;;;;;;;24.88;15.15;;;5.10;99.90;;;;;;5034242;28;20049;-90
2021/12/12 04:19:37;;;;;;;28.35;14.05;;;5.10;99.90;;;;;;5034866;28;20117;-90
2021/12/12 04:22:03;;;;;;;21.67;13.85;;;5.10;99.90;;;;;;5034422;28;20091;-90
2021/12/12 04:24:33;;;;;;;26.67;13.05;;;5.10;99.90;;;;;;5034025;28;20041;-90
2021/12/12 04:27:00;;;;;;;27.25;13.30;;;5.10;99.90;;;;;;5050889;28;20094;-90
2021/12/12 04:29:35;;;;;;;24.65;13.40;;;5.10;99.90;;;;;;5050626;28;20048;-90
2021/12/12 04:32:06;;;;;;;22.65;13.30;;;5.10;99.90;;;;;;5051338;28;20052;-90
2021/12/12 04:34:35;;;;;;;28.38;13.57;;;5.10;99.90;;;;;;5034498;28;20584;-90
2021/12/12 04:37:02;;;;;;;27.67;13.70;;;5.10;99.90;;;;;;5033952;28;20049;-90
2021/12/12 04:39:31;;;;;;;21.88;12.55;;;5.10;99.90;;;;;;5050931;28;20037;-90
2021/12/12 04:42:07;;;;;;;23.80;12.77;;;5.10;99.90;;;;;;5034585;28;20036;-89
2021/12/12 04:44:37;;;;;;;21.63;12.30;;;5.10;99.90;;;;;;5033343;28;20507;-90
2021/12/12 04:50:33;;;;;;;18.05;9.63;;;5.10;99.90;;;;;;5050498;28;20048;-89
2021/12/12 04:53:11;;;;;;;22.27;10.63;;;5.20;99.90;;;;;;5050708;28;20102;-90
2021/12/12 04:55:59;;;;;;;20.80;12.88;;;5.20;99.90;;;;;;5050353;28;20402;-90
2021/12/12 04:58:46;;;;;;;23.27;11.55;;;5.20;99.90;;;;;;5033973;28;20044;-90
2021/12/12 05:01:24;;;;;;;18.83;11.02;;;5.20;99.90;;;;;;5050095;28;20045;-90
2021/12/12 05:03:58;;;;;;;20.27;11.45;;;5.20;99.90;;;;;;5052693;28;20137;-90
2021/12/12 05:06:46;;;;;;;19.95;11.45;;;5.20;99.90;;;;;;5053025;28;20036;-89
2021/12/12 05:09:18;;;;;;;20.48;11.18;;;5.30;99.90;;;;;;5053220;28;20420;-90
2021/12/12 05:12:06;;;;;;;18.60;10.47;;;5.30;99.90;;;;;;5036747;28;20093;-91
2021/12/12 05:14:36;;;;;;;19.33;10.65;;;5.30;99.90;;;;;;5036895;28;20382;-90
2021/12/12 05:17:09;;;;;;;18.83;10.25;;;5.30;99.90;;;;;;5053334;28;20048;-90
2021/12/12 05:19:38;;;;;;;16.88;9.77;;;5.30;99.90;;;;;;5036892;28;20072;-90
2021/12/12 05:22:10;;;;;;;16.27;10.32;;;5.40;99.90;;;;;;5036744;28;20085;-90
2021/12/12 05:24:38;;;;;;;19.17;9.57;;;5.30;99.90;;;;;;5053860;28;20047;-90
2021/12/12 05:27:15;;;;;;;16.20;8.77;;;5.40;99.90;;;;;;5053434;28;20051;-90
2021/12/12 05:29:54;;;;;;;16.00;9.43;;;5.40;99.90;;;;;;5052758;28;20123;-90
2021/12/12 05:32:20;;;;;;;17.77;9.27;;;5.40;99.90;;;;;;5063600;28;20036;-90
2021/12/12 05:34:50;;;;;;;18.65;9.30;;;5.40;99.90;;;;;;5056094;28;20040;-90
2021/12/12 05:37:19;;;;;;;18.67;8.43;;;5.40;99.90;;;;;;5073162;28;20557;-90
2021/12/12 05:39:45;;;;;;;13.63;8.40;;;5.40;99.90;;;;;;5072371;28;20032;-89
2021/12/12 05:42:13;;;;;;;12.45;7.68;;;5.40;99.90;;;;;;5056667;28;20043;-89
2021/12/12 05:44:40;;;;;;;14.85;8.13;;;5.40;99.90;;;;;;5072474;28;20036;-89
2021/12/12 05:47:09;;;;;;;15.35;8.02;;;5.50;99.90;;;;;;5073381;28;20090;-89
2021/12/12 05:49:40;;;;;;;13.18;6.95;;;5.50;99.90;;;;;;5072613;28;20568;-90
2021/12/12 05:52:08;;;;;;;13.60;7.85;;;5.50;99.90;;;;;;5056103;28;20680;-90
2021/12/12 05:54:34;;;;;;;13.02;7.10;;;5.50;99.90;;;;;;5072634;28;20065;-90
2021/12/12 05:57:01;;;;;;;11.25;6.60;;;5.50;99.90;;;;;;5073318;28;20036;-90
2021/12/12 05:59:27;;;;;;;12.43;6.20;;;5.50;99.90;;;;;;5072318;28;20047;-90
2021/12/12 06:01:55;;;;;;;12.32;7.63;;;5.50;99.90;;;;;;5073582;28;20059;-90
2021/12/12 06:04:21;;;;;;;12.98;6.65;;;5.50;99.90;;;;;;5072217;28;20040;-90
2021/12/12 06:06:47;;;;;;;12.48;7.18;;;5.50;99.90;;;;;;5062517;28;20097;-90
2021/12/12 06:09:15;;;;;;;13.90;8.00;;;5.50;99.90;;;;;;5042912;28;20044;-90
2021/12/12 06:11:45;;;;;;;13.00;7.25;;;5.50;99.90;;;;;;5054481;28;20075;-90
2021/12/12 06:14:12;;;;;;;12.75;6.75;;;5.50;99.90;;;;;;5055716;28;20076;-90
2021/12/12 06:16:39;;;;;;;10.85;6.75;;;5.50;99.90;;;;;;5056711;28;20496;-90
2021/12/12 06:19:13;;;;;;;12.73;7.60;;;5.50;99.90;;;;;;5073416;28;20071;-90
2021/12/12 06:21:44;;;;;;;13.45;7.43;;;5.50;99.90;;;;;;5074955;28;20182;-90
2021/12/12 06:24:11;;;;;;;11.13;6.65;;;5.50;99.90;;;;;;5075685;28;20047;-90
2021/12/12 06:26:38;;;;;;;13.55;7.45;;;5.60;99.90;;;;;;5083765;28;20052;-89
2021/12/12 06:29:05;;;;;;;13.68;6.60;;;5.60;99.90;;;;;;5058898;28;20043;-90
2021/12/12 06:31:30;;;;;;;11.82;7.03;;;5.60;99.90;;;;;;5069061;28;20558;-90
2021/12/12 06:33:56;;;;;;;11.82;6.90;;;5.60;99.90;;;;;;5034714;28;20750;-91
2021/12/12 06:36:24;;;;;;;10.82;6.35;;;5.60;99.90;;;;;;5074518;28;20078;-89
2021/12/12 06:38:53;;;;;;;13.63;7.53;;;5.60;99.90;;;;;;5054952;28;20044;-89
2021/12/12 06:41:20;;;;;;;12.68;6.80;;;5.60;99.90;;;;;;5055369;28;20676;-90
2021/12/12 06:43:47;;;;;;;13.25;7.47;;;5.60;99.90;;;;;;5052321;28;20053;-90
2021/12/12 06:46:13;;;;;;;12.18;6.80;;;5.60;99.90;;;;;;5070321;28;20056;-90
2021/12/12 06:48:40;;;;;;;12.52;8.18;;;5.60;99.90;;;;;;5051773;28;20116;-90
2021/12/12 06:51:07;;;;;;;11.13;6.85;;;5.60;99.90;;;;;;5052402;28;20117;-89
2021/12/12 06:53:35;;;;;;;15.15;8.00;;;5.70;99.90;;;;;;5038831;28;20447;-90
2021/12/12 06:56:02;;;;;;;12.80;8.05;;;5.70;99.90;;;;;;5055542;28;20039;-89
2021/12/12 06:58:30;;;;;;;13.70;7.53;;;5.60;99.90;;;;;;5039508;28;20505;-90
2021/12/12 07:01:00;;;;;;;11.95;7.70;;;5.60;99.90;;;;;;5038891;28;20051;-89
2021/12/12 07:03:26;;;;;;;15.75;9.05;;;5.70;99.90;;;;;;5055459;28;20122;-90
2021/12/12 07:05:52;;;;;;;13.88;8.27;;;5.70;99.90;;;;;;5054645;28;20059;-90
2021/12/12 07:08:21;;;;;;;14.23;9.27;;;5.70;99.90;;;;;;5038805;28;20040;-90
2021/12/12 07:10:47;;;;;;;13.73;8.50;;;5.70;99.90;;;;;;5055506;28;20076;-91
2021/12/12 07:13:12;;;;;;;13.60;7.88;;;5.80;99.90;;;;;;5055583;28;20075;-90
2021/12/12 07:15:44;;;;;;;13.27;8.07;;;5.80;99.90;;;;;;5055618;28;20039;-89
2021/12/12 07:18:13;;;;;;;13.75;7.75;;;5.80;99.90;;;;;;5055594;28;20132;-90
2021/12/12 07:20:41;;;;;;;13.38;9.07;;;5.80;99.90;;;;;;5039118;28;20055;-90
2021/12/12 07:23:09;;;;;;;13.75;9.07;;;5.80;99.90;;;;;;5055343;28;20041;-89
2021/12/12 07:25:36;;;;;;;13.32;8.65;;;5.80;99.90;;;;;;5055422;28;20044;-89
2021/12/12 07:28:03;;;;;;;13.27;9.27;;;5.80;99.90;;;;;;5055329;28;20048;-89
2021/12/12 07:30:30;;;;;;;14.50;9.60;;;5.80;99.90;;;;;;5051287;28;20044;-90
2021/12/12 07:32:58;;;;;;;14.27;9.63;;;5.80;99.90;;;;;;5052109;28;20524;-90
2021/12/12 07:35:25;;;;;;;13.13;8.48;;;5.90;99.90;;;;;;5035177;28;20044;-90
2021/12/12 07:37:52;;;;;;;14.00;9.10;;;5.90;99.90;;;;;;5051657;28;20417;-90
2021/12/12 07:40:20;;;;;;;13.02;8.63;;;5.90;99.90;;;;;;5051945;28;20044;-90
2021/12/12 07:42:48;;;;;;;13.65;8.73;;;5.90;99.90;;;;;;5052165;28;20468;-90
2021/12/12 07:45:15;;;;;;;13.15;8.05;;;6.00;99.90;;;;;;5051453;28;20496;-90
2021/12/12 07:47:43;;;;;;;13.48;9.10;;;6.00;99.90;;;;;;5036104;28;20170;-90
2021/12/12 07:50:12;;;;;;;12.65;7.93;;;6.00;99.90;;;;;;5052505;28;20048;-90
2021/12/12 07:52:38;;;;;;;14.25;8.85;;;6.00;99.90;;;;;;5052974;28;20052;-90
2021/12/12 07:55:05;;;;;;;12.93;8.77;;;6.00;99.90;;;;;;5052020;28;20097;-90
2021/12/12 07:57:32;;;;;;;13.57;8.13;;;6.00;99.90;;;;;;5051338;28;20132;-89
2021/12/12 07:59:59;;;;;;;14.85;8.55;;;6.00;99.90;;;;;;5051818;28;20036;-90
2021/12/12 08:02:25;;;;;;;13.70;8.20;;;6.00;99.90;;;;;;5051909;28;20033;-89
2021/12/12 08:04:53;;;;;;;13.27;8.48;;;6.10;99.90;;;;;;5049882;28;20032;-89
2021/12/12 08:07:22;;;;;;;13.40;8.57;;;6.10;99.90;;;;;;5034446;28;20048;-89
2021/12/12 08:09:49;;;;;;;13.68;8.93;;;6.10;99.90;;;;;;5042753;28;20463;-90
2021/12/12 08:12:18;;;;;;;13.85;9.18;;;6.10;99.90;;;;;;5052131;28;20044;-91
2021/12/12 08:14:45;;;;;;;17.58;10.75;;;6.10;99.90;;;;;;5034180;28;20050;-91
2021/12/12 08:17:13;;;;;;;15.77;10.27;;;6.10;99.90;;;;;;5051638;28;20040;-91
2021/12/12 08:19:40;;;;;;;15.90;10.35;;;6.10;99.90;;;;;;5051479;28;20127;-91
2021/12/12 08:22:08;;;;;;;17.92;11.32;;;6.20;99.90;;;;;;5069261;28;20036;-91
2021/12/12 08:24:37;;;;;;;16.95;11.20;;;6.20;99.90;;;;;;5051799;28;20408;-90
2021/12/12 08:27:05;;;;;;;16.45;11.10;;;6.20;99.90;;;;;;5088287;28;20094;-90
2021/12/12 08:29:32;;;;;;;17.48;11.52;;;6.20;99.90;;;;;;5054376;28;20047;-90
2021/12/12 08:31:58;;;;;;;19.17;11.05;;;6.30;99.90;;;;;;5054405;28;20476;-90
2021/12/12 08:34:26;;;;;;;15.57;10.48;;;6.30;99.90;;;;;;5077754;28;20045;-91
2021/12/12 08:36:54;;;;;;;17.15;10.70;;;6.30;99.90;;;;;;5054354;28;20452;-90
2021/12/12 08:39:20;;;;;;;19.95;11.77;;;6.30;99.90;;;;;;5053080;28;20081;-90
2021/12/12 08:41:48;;;;;;;17.95;11.30;;;6.40;99.90;;;;;;5053669;28;20036;-91
2021/12/12 08:44:15;;;;;;;19.23;11.15;;;6.40;99.90;;;;;;5053160;28;20093;-91
2021/12/12 08:46:43;;;;;;;16.27;10.98;;;6.40;99.90;;;;;;5035344;28;20041;-90
2021/12/12 08:49:11;;;;;;;19.35;11.98;;;6.40;99.90;;;;;;5033859;28;20053;-91
2021/12/12 08:51:41;;;;;;;17.08;10.50;;;6.50;99.90;;;;;;5034343;28;20094;-91
2021/12/12 08:54:15;;;;;;;16.90;10.00;;;6.50;99.90;;;;;;5017615;28;20033;-90
2021/12/12 08:56:47;;;;;;;15.77;9.48;;;6.50;99.90;;;;;;5033410;28;20045;-91
2021/12/12 08:59:25;;;;;;;15.18;8.43;;;6.60;99.90;;;;;;5016662;28;20033;-90
2021/12/12 09:01:58;;;;;;;16.13;10.23;;;6.60;99.90;;;;;;5049000;28;20036;-91
2021/12/12 09:04:28;;;;;;;15.25;9.23;;;6.60;99.90;;;;;;5043028;28;20052;-90
2021/12/12 09:07:05;;;;;;;14.68;9.55;;;6.70;99.90;;;;;;5042189;28;20036;-91
2021/12/12 09:09:38;;;;;;;15.00;8.82;;;6.70;99.90;;;;;;5053039;28;20488;-90
2021/12/12 09:12:06;;;;;;;15.35;9.38;;;6.70;99.90;;;;;;5036017;28;20048;-90
2021/12/12 09:14:50;;;;;;;14.18;9.02;;;6.70;99.90;;;;;;5052878;28;20067;-91
2021/12/12 09:17:21;;;;;;;15.13;9.60;;;6.80;99.90;;;;;;5053337;28;20037;-90
2021/12/12 09:19:58;;;;;;;15.90;9.43;;;6.80;99.90;;;;;;5071312;28;20032;-91
2021/12/12 09:22:33;;;;;;;15.90;10.27;;;6.80;99.90;;;;;;5052605;28;20063;-91
2021/12/12 09:25:16;;;;;;;15.05;10.18;;;6.90;99.90;;;;;;5053424;28;20041;-91
2021/12/12 09:27:48;;;;;;;14.60;8.50;;;6.90;99.90;;;;;;5036563;28;20089;-91
2021/12/12 09:30:17;;;;;;;14.82;8.40;;;6.90;99.90;;;;;;5036062;28;20072;-92
2021/12/12 09:32:59;;;;;;;16.63;10.85;;;6.90;99.90;;;;;;5049643;28;20049;-91
2021/12/12 09:36:02;;;;;;;17.02;10.48;;;7.00;99.90;;;;;;5049780;28;20051;-91
2021/12/12 09:38:42;;;;;;;15.30;9.60;;;7.00;99.90;;;;;;5034688;28;20044;-91
2021/12/12 09:41:23;;;;;;;17.48;10.93;;;7.00;99.90;;;;;;5050094;28;20033;-90
2021/12/12 09:43:59;;;;;;;18.02;11.43;;;7.00;99.90;;;;;;5050096;28;20032;-90
2021/12/12 09:47:00;;;;;;;17.60;11.48;;;7.00;99.90;;;;;;5033412;28;20040;-90
2021/12/12 09:52:38;;;;;;;18.10;11.93;;;7.00;99.90;;;;;;5049608;28;20044;-90
2021/12/12 09:55:10;;;;;;;19.83;12.32;;;7.10;99.90;;;;;;5046968;28;20049;-90
2021/12/12 09:58:00;;;;;;;18.77;10.43;;;7.10;99.90;;;;;;5026390;28;20028;-90
2021/12/12 10:00:49;;;;;;;19.95;12.77;;;7.20;99.90;;;;;;5040372;28;20486;-90
2021/12/12 10:03:48;;;;;;;18.75;12.27;;;7.20;99.90;;;;;;5027750;28;20044;-91
2021/12/12 10:06:26;;;;;;;18.50;12.07;;;7.30;99.90;;;;;;4990321;28;20071;-90
2021/12/12 10:08:57;;;;;;;20.13;12.82;;;7.30;99.90;;;;;;5052419;28;20501;-90
2021/12/12 10:11:45;;;;;;;19.85;12.45;;;7.30;99.90;;;;;;5049433;28;20044;-90
2021/12/12 10:14:21;;;;;;;17.95;12.18;;;7.40;99.90;;;;;;5033737;28;20121;-90
2021/12/12 10:17:00;;;;;;;22.00;13.07;;;7.40;99.90;;;;;;5033247;28;20067;-91
2021/12/12 10:20:00;;;;;;;20.25;11.82;;;7.50;99.90;;;;;;5016505;28;20052;-90
2021/12/12 10:23:03;;;;;;;19.73;11.70;;;7.50;99.90;;;;;;5032294;28;20041;-91
2021/12/12 10:25:42;;;;;;;19.42;10.32;;;7.50;99.90;;;;;;5044128;28;20037;-91
2021/12/12 10:28:24;;;;;;;18.70;11.45;;;7.50;99.90;;;;;;5021881;28;20041;-91
2021/12/12 10:31:00;;;;;;;15.80;8.82;;;7.60;99.90;;;;;;5037520;28;20037;-91
2021/12/12 10:33:32;;;;;;;18.98;12.05;;;7.70;99.90;;;;;;5021491;28;20033;-91
2021/12/12 10:36:05;;;;;;;19.33;12.20;;;7.70;99.90;;;;;;5039425;28;20124;-91
2021/12/12 10:38:39;;;;;;;19.33;11.93;;;7.70;99.90;;;;;;5013981;28;20517;-90
2021/12/12 10:41:16;;;;;;;20.15;12.68;;;7.70;99.90;;;;;;4997011;28;20126;-91
2021/12/12 10:43:50;;;;;;;18.70;11.43;;;7.80;99.90;;;;;;4995954;28;20038;-90
2021/12/12 10:46:32;;;;;;;18.27;10.60;;;7.80;99.90;;;;;;5028975;28;20045;-91
2021/12/12 10:49:04;;;;;;;18.38;12.13;;;7.90;99.90;;;;;;5027997;28;20042;-91
2021/12/12 10:51:38;;;;;;;17.42;9.23;;;7.90;99.90;;;;;;5028936;28;20045;-91
2021/12/12 10:54:29;;;;;;;19.08;11.40;;;7.90;99.90;;;;;;5026477;28;20052;-90
2021/12/12 10:57:07;;;;;;;17.20;10.43;;;7.90;99.90;;;;;;5048504;28;20099;-90
2021/12/12 10:59:52;;;;;;;18.48;10.93;;;8.00;99.90;;;;;;5032406;28;20594;-90
2021/12/12 11:02:21;;;;;;;16.80;10.50;;;8.00;99.90;;;;;;5032799;28;20037;-90
2021/12/12 11:04:55;;;;;;;16.45;11.18;;;8.10;99.90;;;;;;5024790;28;20044;-91
2021/12/12 11:07:26;;;;;;;16.08;9.90;;;8.10;99.90;;;;;;5040166;28;20068;-91
2021/12/12 11:09:53;;;;;;;16.45;10.07;;;8.20;99.90;;;;;;5022890;28;20509;-91
2021/12/12 11:12:45;;;;;;;16.60;10.48;;;8.20;99.90;;;;;;5047033;28;20041;-91
2021/12/12 11:15:30;;;;;;;16.25;9.65;;;8.20;99.90;;;;;;5034582;28;20457;-91
2021/12/12 11:18:05;;;;;;;16.30;9.73;;;8.30;99.90;;;;;;5050744;28;20051;-91
2021/12/12 11:21:03;;;;;;;15.02;9.13;;;8.30;99.90;;;;;;5014496;28;20041;-91
2021/12/12 11:23:50;;;;;;;13.93;8.32;;;8.30;99.90;;;;;;5045747;28;20053;-91
2021/12/12 11:26:28;;;;;;;13.15;8.43;;;8.30;99.90;;;;;;5028901;28;20042;-91
2021/12/12 11:28:59;;;;;;;15.35;9.30;;;8.30;99.90;;;;;;5036144;28;20091;-91
2021/12/12 11:31:37;;;;;;;14.18;8.90;;;8.40;99.90;;;;;;5051426;28;20458;-91
2021/12/12 11:34:06;;;;;;;13.57;8.88;;;8.40;99.90;;;;;;5035150;28;20032;-90
2021/12/12 11:36:44;;;;;;;15.95;9.57;;;8.40;99.90;;;;;;5054132;28;20501;-91
2021/12/12 11:39:44;;;;;;;14.35;9.48;;;8.40;99.90;;;;;;5074683;28;20048;-90
2021/12/12 11:42:42;;;;;;;13.70;8.07;;;8.40;99.90;;;;;;5059677;28;20051;-90
2021/12/12 11:45:25;;;;;;;15.07;8.13;;;8.40;99.90;;;;;;5079390;28;20043;-90
2021/12/12 11:48:12;;;;;;;13.25;7.45;;;8.40;99.90;;;;;;5058451;28;20115;-90
2021/12/12 11:51:00;;;;;;;14.68;9.35;;;8.40;99.90;;;;;;5074779;28;20044;-90
2021/12/12 11:53:50;;;;;;;15.00;9.27;;;8.40;99.90;;;;;;5074711;28;20043;-92
2021/12/12 11:56:30;;;;;;;15.10;8.88;;;8.50;99.90;;;;;;5091240;28;20028;-89
2021/12/12 11:59:04;;;;;;;13.75;9.05;;;8.50;99.90;;;;;;5062157;28;20043;-89
2021/12/12 12:02:03;;;;;;;13.50;8.77;;;8.50;99.90;;;;;;5038183;28;20036;-91
2021/12/12 12:04:35;;;;;;;14.50;9.35;;;8.60;99.90;;;;;;5055174;28;20048;-91
2021/12/12 12:07:19;;;;;;;14.40;8.85;;;8.60;99.90;;;;;;5054722;28;20047;-90
2021/12/12 12:10:07;;;;;;;15.90;9.15;;;8.60;99.90;;;;;;5038586;28;20436;-90
2021/12/12 12:13:01;;;;;;;14.45;9.15;;;8.60;99.90;;;;;;5053911;28;20120;-91
2021/12/12 12:15:38;;;;;;;17.58;10.00;;;8.60;99.90;;;;;;5054833;28;20040;-90
2021/12/12 12:18:42;;;;;;;15.82;9.60;;;8.60;99.90;;;;;;5054516;28;20056;-91
2021/12/12 12:21:34;;;;;;;16.50;9.70;;;8.70;99.90;;;;;;5038452;28;20043;-91
2021/12/12 12:24:25;;;;;;;17.58;10.88;;;8.70;99.90;;;;;;5054171;28;20529;-91
2021/12/12 12:27:38;;;;;;;17.55;10.93;;;8.70;99.90;;;;;;5054640;28;20045;-90
2021/12/12 12:30:35;;;;;;;16.65;10.65;;;8.70;99.90;;;;;;5010395;28;20063;-90
2021/12/12 12:33:13;;;;;;;17.23;10.70;;;8.70;99.90;;;;;;5037816;28;20044;-90
2021/12/12 12:36:04;;;;;;;18.45;12.05;;;8.70;99.90;;;;;;5037430;28;20044;-90
2021/12/12 12:38:51;;;;;;;19.42;12.05;;;8.80;99.90;;;;;;5037672;28;20083;-90
2021/12/12 12:41:23;;;;;;;17.90;10.65;;;8.80;99.90;;;;;;5054091;28;20040;-91
2021/12/12 12:44:26;;;;;;;19.75;12.23;;;8.80;99.90;;;;;;5071662;28;20549;-91
2021/12/12 12:47:29;;;;;;;15.65;9.43;;;8.80;99.90;;;;;;5053620;28;20750;-91
2021/12/12 12:50:16;;;;;;;17.70;9.63;;;8.80;99.90;;;;;;5054359;28;20040;-91
2021/12/12 12:52:58;;;;;;;19.45;12.32;;;8.90;99.90;;;;;;5037687;28;20075;-90
2021/12/12 12:55:39;;;;;;;20.48;12.43;;;8.90;99.90;;;;;;5053668;28;20131;-90
2021/12/12 12:58:24;;;;;;;20.23;12.45;;;8.90;99.90;;;;;;5037399;28;20128;-91
2021/12/12 13:01:12;;;;;;;21.50;12.90;;;8.90;99.90;;;;;;5037711;28;20044;-90
2021/12/12 13:04:02;;;;;;;20.17;12.57;;;8.90;99.90;;;;;;5052681;28;20039;-91
2021/12/12 13:07:08;;;;;;;20.42;11.70;;;8.90;99.90;;;;;;5070684;28;20517;-89
2021/12/12 13:09:58;;;;;;;23.60;13.10;;;9.00;99.90;;;;;;5054302;28;20471;-91
2021/12/12 13:12:43;;;;;;;23.10;12.50;;;9.00;99.90;;;;;;5036442;28;20214;-91
2021/12/12 13:15:37;;;;;;;20.42;12.95;;;9.00;99.90;;;;;;5036442;28;20044;-91
2021/12/12 13:18:20;;;;;;;21.30;13.35;;;9.00;99.90;;;;;;5053740;28;20044;-91
2021/12/12 13:21:03;;;;;;;24.17;14.32;;;9.00;99.90;;;;;;5053919;28;20453;-91
2021/12/12 13:24:07;;;;;;;19.20;11.07;;;9.10;99.90;;;;;;5071452;28;20401;-90
2021/12/12 13:26:59;;;;;;;18.98;11.82;;;9.10;99.90;;;;;;5037401;28;20048;-91
2021/12/12 13:30:12;;;;;;;21.38;12.50;;;9.10;99.90;;;;;;5053999;28;20044;-90
2021/12/12 13:32:55;;;;;;;19.13;11.10;;;9.10;99.90;;;;;;5053434;28;20040;-90
2021/12/12 13:36:02;;;;;;;22.92;12.32;;;9.20;99.90;;;;;;5053788;28;20040;-90